Wilmot, Arkansas
Current Conditions -  °F | °C
As of 8:35 PM on Wednesday 17 Dec 2014 (Local Time) from KBQP Reporting Station
Broken Clouds Broken Clouds  
Wind Chill: 42°   Ceiling: 12000
Heat Index: 45°   Visibility: 10mi
Dew Point: 38°   Wind: 6mph
Humidity: 76%   Direction: 70°ENE
Pressure: 30.2"   Gusts: NA
Location:  33.06°N, 91.57°W
Report Text: KBQP 180235Z AUTO 07005KT 10SM BKN120 07/03 A3020 RMK AO2 T00720033
Loading
Personal Weather Stations






























Interactive Weather Map New forecast layout! Learn more

10-Day Weather Forecast

Advertisements
Track Severe Weather on mobile